sensor_id;sensor_type;location;lat;lon;timestamp;P1;durP1;ratioP1;P2;durP2;ratioP2
61911;SDS011;49973;52.084;5.412;2023-03-23T00:01:48;7.47;;;3.07;;
61911;SDS011;49973;52.084;5.412;2023-03-23T00:04:17;5.23;;;3.23;;
61911;SDS011;49973;52.084;5.412;2023-03-23T00:06:45;7.18;;;4.00;;
61911;SDS011;49973;52.084;5.412;2023-03-23T00:09:12;7.13;;;3.30;;
61911;SDS011;49973;52.084;5.412;2023-03-23T00:11:41;7.70;;;3.90;;
61911;SDS011;49973;52.084;5.412;2023-03-23T00:14:09;7.33;;;2.97;;
61911;SDS011;49973;52.084;5.412;2023-03-23T00:16:39;9.73;;;3.33;;
61911;SDS011;49973;52.084;5.412;2023-03-23T00:19:09;5.33;;;3.43;;
61911;SDS011;49973;52.084;5.412;2023-03-23T00:21:41;11.93;;;3.73;;
61911;SDS011;49973;52.084;5.412;2023-03-23T00:24:10;11.70;;;3.57;;
61911;SDS011;49973;52.084;5.412;2023-03-23T00:26:41;5.97;;;2.77;;
61911;SDS011;49973;52.084;5.412;2023-03-23T00:29:11;4.07;;;2.80;;
61911;SDS011;49973;52.084;5.412;2023-03-23T00:31:40;5.77;;;3.17;;
61911;SDS011;49973;52.084;5.412;2023-03-23T00:34:12;7.73;;;2.87;;
61911;SDS011;49973;52.084;5.412;2023-03-23T00:36:46;4.00;;;2.57;;
61911;SDS011;49973;52.084;5.412;2023-03-23T00:39:16;11.47;;;3.17;;
61911;SDS011;49973;52.084;5.412;2023-03-23T00:41:46;4.70;;;2.97;;
61911;SDS011;49973;52.084;5.412;2023-03-23T00:44:14;7.10;;;3.13;;
61911;SDS011;49973;52.084;5.412;2023-03-23T00:46:42;5.07;;;2.57;;
61911;SDS011;49973;52.084;5.412;2023-03-23T00:49:15;8.93;;;2.90;;
61911;SDS011;49973;52.084;5.412;2023-03-23T00:51:44;5.20;;;2.70;;
61911;SDS011;49973;52.084;5.412;2023-03-23T00:54:13;5.87;;;2.93;;
61911;SDS011;49973;52.084;5.412;2023-03-23T00:56:41;3.50;;;2.70;;
61911;SDS011;49973;52.084;5.412;2023-03-23T00:59:08;5.53;;;2.87;;
61911;SDS011;49973;52.084;5.412;2023-03-23T01:01:35;5.53;;;3.27;;
61911;SDS011;49973;52.084;5.412;2023-03-23T01:04:03;4.40;;;2.50;;
61911;SDS011;49973;52.084;5.412;2023-03-23T01:06:32;5.83;;;3.00;;
61911;SDS011;49973;52.084;5.412;2023-03-23T01:09:02;3.53;;;2.60;;
61911;SDS011;49973;52.084;5.412;2023-03-23T01:11:31;4.87;;;2.57;;
61911;SDS011;49973;52.084;5.412;2023-03-23T01:13:58;8.30;;;2.83;;
61911;SDS011;49973;52.084;5.412;2023-03-23T01:16:27;3.40;;;2.30;;
61911;SDS011;49973;52.084;5.412;2023-03-23T01:18:54;4.53;;;2.60;;
61911;SDS011;49973;52.084;5.412;2023-03-23T01:21:23;3.67;;;2.57;;
61911;SDS011;49973;52.084;5.412;2023-03-23T01:23:51;3.77;;;2.60;;
61911;SDS011;49973;52.084;5.412;2023-03-23T01:26:20;5.67;;;2.80;;
61911;SDS011;49973;52.084;5.412;2023-03-23T01:28:49;5.77;;;2.37;;
61911;SDS011;49973;52.084;5.412;2023-03-23T01:31:17;5.33;;;2.17;;
61911;SDS011;49973;52.084;5.412;2023-03-23T01:33:46;3.17;;;2.30;;
61911;SDS011;49973;52.084;5.412;2023-03-23T01:36:18;6.63;;;2.20;;
61911;SDS011;49973;52.084;5.412;2023-03-23T01:38:48;8.90;;;2.03;;
61911;SDS011;49973;52.084;5.412;2023-03-23T01:41:16;4.07;;;2.23;;
61911;SDS011;49973;52.084;5.412;2023-03-23T01:46:44;6.27;;;2.03;;
61911;SDS011;49973;52.084;5.412;2023-03-23T01:49:12;4.67;;;1.97;;
61911;SDS011;49973;52.084;5.412;2023-03-23T01:51:45;4.60;;;3.20;;
61911;SDS011;49973;52.084;5.412;2023-03-23T01:54:17;2.67;;;2.13;;
61911;SDS011;49973;52.084;5.412;2023-03-23T01:56:48;6.97;;;2.40;;
61911;SDS011;49973;52.084;5.412;2023-03-23T01:59:22;6.83;;;2.50;;
61911;SDS011;49973;52.084;5.412;2023-03-23T02:02:03;4.00;;;2.53;;
61911;SDS011;49973;52.084;5.412;2023-03-23T02:04:31;4.10;;;2.70;;
61911;SDS011;49973;52.084;5.412;2023-03-23T02:07:00;3.00;;;2.37;;
61911;SDS011;49973;52.084;5.412;2023-03-23T02:09:29;4.40;;;2.20;;
61911;SDS011;49973;52.084;5.412;2023-03-23T02:11:57;5.47;;;3.07;;
61911;SDS011;49973;52.084;5.412;2023-03-23T02:14:26;3.37;;;2.50;;
61911;SDS011;49973;52.084;5.412;2023-03-23T02:16:58;3.83;;;2.33;;
61911;SDS011;49973;52.084;5.412;2023-03-23T02:19:35;6.97;;;2.70;;
61911;SDS011;49973;52.084;5.412;2023-03-23T02:22:24;11.27;;;2.53;;
61911;SDS011;49973;52.084;5.412;2023-03-23T02:25:26;7.10;;;2.70;;
61911;SDS011;49973;52.084;5.412;2023-03-23T02:31:20;4.23;;;2.60;;
61911;SDS011;49973;52.084;5.412;2023-03-23T02:34:06;6.17;;;3.00;;
61911;SDS011;49973;52.084;5.412;2023-03-23T02:36:41;5.30;;;3.13;;
61911;SDS011;49973;52.084;5.412;2023-03-23T02:39:14;4.23;;;3.00;;
61911;SDS011;49973;52.084;5.412;2023-03-23T02:41:47;4.23;;;2.83;;
61911;SDS011;49973;52.084;5.412;2023-03-23T02:44:18;5.60;;;2.83;;
61911;SDS011;49973;52.084;5.412;2023-03-23T02:46:47;6.13;;;2.80;;
61911;SDS011;49973;52.084;5.412;2023-03-23T02:49:17;5.43;;;2.67;;
61911;SDS011;49973;52.084;5.412;2023-03-23T02:51:46;3.30;;;2.73;;
61911;SDS011;49973;52.084;5.412;2023-03-23T02:54:15;6.47;;;3.23;;
61911;SDS011;49973;52.084;5.412;2023-03-23T02:56:44;5.67;;;3.07;;
61911;SDS011;49973;52.084;5.412;2023-03-23T02:59:20;5.20;;;2.97;;
61911;SDS011;49973;52.084;5.412;2023-03-23T03:01:52;4.90;;;2.60;;
61911;SDS011;49973;52.084;5.412;2023-03-23T03:04:29;5.47;;;2.93;;
61911;SDS011;49973;52.084;5.412;2023-03-23T03:07:01;4.57;;;2.77;;
61911;SDS011;49973;52.084;5.412;2023-03-23T03:09:46;7.27;;;2.70;;
61911;SDS011;49973;52.084;5.412;2023-03-23T03:12:21;4.13;;;2.43;;
61911;SDS011;49973;52.084;5.412;2023-03-23T03:14:58;7.30;;;2.50;;
61911;SDS011;49973;52.084;5.412;2023-03-23T03:17:35;2.60;;;2.20;;
61911;SDS011;49973;52.084;5.412;2023-03-23T03:20:10;3.43;;;2.43;;
61911;SDS011;49973;52.084;5.412;2023-03-23T03:22:40;5.73;;;2.53;;
61911;SDS011;49973;52.084;5.412;2023-03-23T03:25:10;4.30;;;1.60;;
61911;SDS011;49973;52.084;5.412;2023-03-23T03:27:42;5.00;;;2.53;;
61911;SDS011;49973;52.084;5.412;2023-03-23T03:30:24;4.03;;;2.10;;
61911;SDS011;49973;52.084;5.412;2023-03-23T03:32:56;4.77;;;2.27;;
61911;SDS011;49973;52.084;5.412;2023-03-23T03:35:27;3.83;;;1.90;;
61911;SDS011;49973;52.084;5.412;2023-03-23T03:37:57;5.13;;;2.53;;
61911;SDS011;49973;52.084;5.412;2023-03-23T03:40:32;3.37;;;2.33;;
61911;SDS011;49973;52.084;5.412;2023-03-23T03:43:00;7.50;;;2.13;;
61911;SDS011;49973;52.084;5.412;2023-03-23T03:45:28;4.43;;;2.70;;
61911;SDS011;49973;52.084;5.412;2023-03-23T03:47:55;5.93;;;2.17;;
61911;SDS011;49973;52.084;5.412;2023-03-23T03:50:23;5.87;;;1.97;;
61911;SDS011;49973;52.084;5.412;2023-03-23T03:52:53;3.83;;;1.53;;
61911;SDS011;49973;52.084;5.412;2023-03-23T03:55:21;6.40;;;2.50;;
61911;SDS011;49973;52.084;5.412;2023-03-23T03:57:50;2.50;;;1.83;;
61911;SDS011;49973;52.084;5.412;2023-03-23T04:00:36;7.17;;;2.13;;
61911;SDS011;49973;52.084;5.412;2023-03-23T04:03:05;7.20;;;2.20;;
61911;SDS011;49973;52.084;5.412;2023-03-23T04:05:59;4.23;;;2.43;;
61911;SDS011;49973;52.084;5.412;2023-03-23T04:08:28;6.00;;;2.03;;
61911;SDS011;49973;52.084;5.412;2023-03-23T04:10:55;3.10;;;2.10;;
61911;SDS011;49973;52.084;5.412;2023-03-23T04:13:24;3.60;;;1.90;;
61911;SDS011;49973;52.084;5.412;2023-03-23T04:16:03;3.30;;;1.97;;
61911;SDS011;49973;52.084;5.412;2023-03-23T04:18:32;3.20;;;1.83;;
61911;SDS011;49973;52.084;5.412;2023-03-23T04:21:00;5.07;;;1.60;;
61911;SDS011;49973;52.084;5.412;2023-03-23T04:23:30;6.47;;;1.80;;
61911;SDS011;49973;52.084;5.412;2023-03-23T04:26:02;3.70;;;1.93;;
61911;SDS011;49973;52.084;5.412;2023-03-23T04:28:37;5.07;;;2.23;;
61911;SDS011;49973;52.084;5.412;2023-03-23T04:31:25;3.67;;;1.60;;
61911;SDS011;49973;52.084;5.412;2023-03-23T04:34:08;6.93;;;1.97;;
61911;SDS011;49973;52.084;5.412;2023-03-23T04:36:42;2.13;;;1.50;;
61911;SDS011;49973;52.084;5.412;2023-03-23T04:39:17;6.73;;;1.47;;
61911;SDS011;49973;52.084;5.412;2023-03-23T04:41:45;2.73;;;1.13;;
61911;SDS011;49973;52.084;5.412;2023-03-23T04:44:36;3.90;;;1.30;;
61911;SDS011;49973;52.084;5.412;2023-03-23T04:47:09;7.20;;;1.83;;
61911;SDS011;49973;52.084;5.412;2023-03-23T04:49:44;3.80;;;1.50;;
61911;SDS011;49973;52.084;5.412;2023-03-23T04:52:26;3.27;;;1.57;;
61911;SDS011;49973;52.084;5.412;2023-03-23T04:55:00;6.10;;;1.53;;
61911;SDS011;49973;52.084;5.412;2023-03-23T04:57:28;5.10;;;1.77;;
61911;SDS011;49973;52.084;5.412;2023-03-23T05:00:25;2.27;;;1.20;;
61911;SDS011;49973;52.084;5.412;2023-03-23T05:02:54;13.47;;;1.50;;
61911;SDS011;49973;52.084;5.412;2023-03-23T05:05:25;4.67;;;1.60;;
61911;SDS011;49973;52.084;5.412;2023-03-23T05:07:56;3.20;;;1.50;;
61911;SDS011;49973;52.084;5.412;2023-03-23T05:10:28;8.37;;;2.30;;
61911;SDS011;49973;52.084;5.412;2023-03-23T05:13:03;5.47;;;1.63;;
61911;SDS011;49973;52.084;5.412;2023-03-23T05:15:30;3.53;;;1.40;;
61911;SDS011;49973;52.084;5.412;2023-03-23T05:17:59;6.67;;;2.07;;
61911;SDS011;49973;52.084;5.412;2023-03-23T05:20:27;9.00;;;2.17;;
61911;SDS011;49973;52.084;5.412;2023-03-23T05:23:01;12.27;;;2.30;;
61911;SDS011;49973;52.084;5.412;2023-03-23T05:25:34;7.20;;;1.87;;
61911;SDS011;49973;52.084;5.412;2023-03-23T05:28:09;11.10;;;1.77;;
61911;SDS011;49973;52.084;5.412;2023-03-23T05:30:51;10.17;;;2.10;;
61911;SDS011;49973;52.084;5.412;2023-03-23T05:33:20;5.87;;;1.80;;
61911;SDS011;49973;52.084;5.412;2023-03-23T05:36:11;6.77;;;1.60;;
61911;SDS011;49973;52.084;5.412;2023-03-23T05:39:11;11.20;;;1.90;;
61911;SDS011;49973;52.084;5.412;2023-03-23T05:41:59;5.57;;;1.60;;
61911;SDS011;49973;52.084;5.412;2023-03-23T05:44:41;8.77;;;1.67;;
61911;SDS011;49973;52.084;5.412;2023-03-23T05:47:11;6.83;;;2.10;;
61911;SDS011;49973;52.084;5.412;2023-03-23T05:49:42;6.47;;;1.47;;
61911;SDS011;49973;52.084;5.412;2023-03-23T05:52:14;2.40;;;1.17;;
61911;SDS011;49973;52.084;5.412;2023-03-23T05:54:42;9.37;;;1.63;;
61911;SDS011;49973;52.084;5.412;2023-03-23T05:57:12;7.27;;;1.57;;
61911;SDS011;49973;52.084;5.412;2023-03-23T05:59:44;5.87;;;1.63;;
61911;SDS011;49973;52.084;5.412;2023-03-23T06:02:21;4.10;;;1.73;;
61911;SDS011;49973;52.084;5.412;2023-03-23T06:04:51;10.33;;;2.13;;
61911;SDS011;49973;52.084;5.412;2023-03-23T06:07:27;7.07;;;1.73;;
61911;SDS011;49973;52.084;5.412;2023-03-23T06:09:59;9.27;;;1.77;;
61911;SDS011;49973;52.084;5.412;2023-03-23T06:12:37;9.30;;;2.40;;
61911;SDS011;49973;52.084;5.412;2023-03-23T06:15:05;6.63;;;2.00;;
61911;SDS011;49973;52.084;5.412;2023-03-23T06:18:03;4.90;;;1.90;;
61911;SDS011;49973;52.084;5.412;2023-03-23T06:20:41;5.57;;;2.07;;
61911;SDS011;49973;52.084;5.412;2023-03-23T06:23:38;5.73;;;2.10;;
61911;SDS011;49973;52.084;5.412;2023-03-23T06:26:07;9.03;;;2.10;;
61911;SDS011;49973;52.084;5.412;2023-03-23T06:28:39;9.00;;;2.30;;
61911;SDS011;49973;52.084;5.412;2023-03-23T06:31:06;7.00;;;1.80;;
61911;SDS011;49973;52.084;5.412;2023-03-23T06:33:35;5.70;;;1.67;;
61911;SDS011;49973;52.084;5.412;2023-03-23T06:36:35;12.00;;;2.23;;
61911;SDS011;49973;52.084;5.412;2023-03-23T06:39:27;11.50;;;2.50;;
61911;SDS011;49973;52.084;5.412;2023-03-23T06:42:15;4.63;;;2.07;;
61911;SDS011;49973;52.084;5.412;2023-03-23T06:44:49;14.90;;;2.63;;
61911;SDS011;49973;52.084;5.412;2023-03-23T06:47:17;7.40;;;2.13;;
61911;SDS011;49973;52.084;5.412;2023-03-23T06:49:46;8.83;;;1.97;;
61911;SDS011;49973;52.084;5.412;2023-03-23T06:52:20;6.40;;;1.67;;
61911;SDS011;49973;52.084;5.412;2023-03-23T06:54:49;7.10;;;2.63;;
61911;SDS011;49973;52.084;5.412;2023-03-23T06:57:19;10.20;;;1.93;;
61911;SDS011;49973;52.084;5.412;2023-03-23T06:59:50;16.37;;;2.33;;
61911;SDS011;49973;52.084;5.412;2023-03-23T07:02:20;16.27;;;2.90;;
61911;SDS011;49973;52.084;5.412;2023-03-23T07:04:51;5.67;;;1.87;;
61911;SDS011;49973;52.084;5.412;2023-03-23T07:07:22;12.53;;;2.37;;
61911;SDS011;49973;52.084;5.412;2023-03-23T07:10:07;7.70;;;1.73;;
61911;SDS011;49973;52.084;5.412;2023-03-23T07:12:36;7.50;;;1.70;;
61911;SDS011;49973;52.084;5.412;2023-03-23T07:15:08;6.80;;;1.67;;
61911;SDS011;49973;52.084;5.412;2023-03-23T07:17:39;5.13;;;1.70;;
61911;SDS011;49973;52.084;5.412;2023-03-23T07:20:15;6.33;;;1.93;;
61911;SDS011;49973;52.084;5.412;2023-03-23T07:22:44;10.10;;;2.17;;
61911;SDS011;49973;52.084;5.412;2023-03-23T07:25:23;9.27;;;1.93;;
61911;SDS011;49973;52.084;5.412;2023-03-23T07:27:53;9.33;;;1.70;;
61911;SDS011;49973;52.084;5.412;2023-03-23T07:30:22;5.10;;;2.07;;
61911;SDS011;49973;52.084;5.412;2023-03-23T07:32:51;7.47;;;1.90;;
61911;SDS011;49973;52.084;5.412;2023-03-23T07:35:19;7.33;;;1.40;;
61911;SDS011;49973;52.084;5.412;2023-03-23T07:38:04;6.13;;;1.70;;
61911;SDS011;49973;52.084;5.412;2023-03-23T07:40:35;10.37;;;2.47;;
61911;SDS011;49973;52.084;5.412;2023-03-23T07:43:11;12.13;;;2.07;;
61911;SDS011;49973;52.084;5.412;2023-03-23T07:46:13;9.63;;;1.93;;
61911;SDS011;49973;52.084;5.412;2023-03-23T07:48:50;4.77;;;1.63;;
61911;SDS011;49973;52.084;5.412;2023-03-23T07:51:20;3.77;;;1.50;;
61911;SDS011;49973;52.084;5.412;2023-03-23T07:53:50;7.63;;;2.03;;
61911;SDS011;49973;52.084;5.412;2023-03-23T07:56:38;9.20;;;2.33;;
61911;SDS011;49973;52.084;5.412;2023-03-23T07:59:12;8.37;;;2.37;;
61911;SDS011;49973;52.084;5.412;2023-03-23T08:01:43;11.03;;;2.40;;
61911;SDS011;49973;52.084;5.412;2023-03-23T08:04:27;8.90;;;2.03;;
61911;SDS011;49973;52.084;5.412;2023-03-23T08:07:24;6.93;;;2.03;;
61911;SDS011;49973;52.084;5.412;2023-03-23T08:10:05;4.73;;;2.10;;
61911;SDS011;49973;52.084;5.412;2023-03-23T08:12:54;7.30;;;2.40;;
61911;SDS011;49973;52.084;5.412;2023-03-23T08:15:39;4.70;;;1.37;;
61911;SDS011;49973;52.084;5.412;2023-03-23T08:18:27;4.87;;;2.00;;
61911;SDS011;49973;52.084;5.412;2023-03-23T08:21:29;9.53;;;2.00;;
61911;SDS011;49973;52.084;5.412;2023-03-23T08:24:06;8.60;;;2.13;;
61911;SDS011;49973;52.084;5.412;2023-03-23T08:27:12;2.23;;;1.50;;
61911;SDS011;49973;52.084;5.412;2023-03-23T08:30:06;12.77;;;2.40;;
61911;SDS011;49973;52.084;5.412;2023-03-23T08:33:04;5.37;;;1.77;;
61911;SDS011;49973;52.084;5.412;2023-03-23T08:35:55;8.07;;;2.47;;
61911;SDS011;49973;52.084;5.412;2023-03-23T08:38:46;7.57;;;1.80;;
61911;SDS011;49973;52.084;5.412;2023-03-23T08:41:34;7.63;;;1.77;;
61911;SDS011;49973;52.084;5.412;2023-03-23T08:44:24;5.20;;;2.00;;
61911;SDS011;49973;52.084;5.412;2023-03-23T08:47:12;10.90;;;2.40;;
61911;SDS011;49973;52.084;5.412;2023-03-23T08:49:57;5.40;;;2.03;;
61911;SDS011;49973;52.084;5.412;2023-03-23T08:52:35;8.67;;;2.60;;
61911;SDS011;49973;52.084;5.412;2023-03-23T08:55:21;4.80;;;1.60;;
61911;SDS011;49973;52.084;5.412;2023-03-23T08:58:11;9.30;;;1.67;;
61911;SDS011;49973;52.084;5.412;2023-03-23T09:01:05;3.67;;;1.47;;
61911;SDS011;49973;52.084;5.412;2023-03-23T09:03:59;7.03;;;1.47;;
61911;SDS011;49973;52.084;5.412;2023-03-23T09:06:38;10.43;;;2.07;;
61911;SDS011;49973;52.084;5.412;2023-03-23T09:09:08;7.97;;;1.53;;
61911;SDS011;49973;52.084;5.412;2023-03-23T09:11:35;6.00;;;1.90;;
61911;SDS011;49973;52.084;5.412;2023-03-23T09:14:04;9.70;;;2.97;;
61911;SDS011;49973;52.084;5.412;2023-03-23T09:16:33;9.87;;;1.87;;
61911;SDS011;49973;52.084;5.412;2023-03-23T09:19:01;4.90;;;1.80;;
61911;SDS011;49973;52.084;5.412;2023-03-23T09:21:28;5.17;;;1.73;;
61911;SDS011;49973;52.084;5.412;2023-03-23T09:23:56;11.13;;;2.10;;
61911;SDS011;49973;52.084;5.412;2023-03-23T09:26:26;5.57;;;1.23;;
61911;SDS011;49973;52.084;5.412;2023-03-23T09:28:54;6.23;;;1.80;;
61911;SDS011;49973;52.084;5.412;2023-03-23T09:31:22;5.90;;;1.77;;
61911;SDS011;49973;52.084;5.412;2023-03-23T09:33:52;9.23;;;1.93;;
61911;SDS011;49973;52.084;5.412;2023-03-23T09:36:21;6.87;;;1.57;;
61911;SDS011;49973;52.084;5.412;2023-03-23T09:38:51;4.77;;;1.53;;
61911;SDS011;49973;52.084;5.412;2023-03-23T09:41:25;8.20;;;1.50;;
61911;SDS011;49973;52.084;5.412;2023-03-23T09:44:09;3.63;;;1.63;;
61911;SDS011;49973;52.084;5.412;2023-03-23T09:46:49;5.10;;;2.10;;
61911;SDS011;49973;52.084;5.412;2023-03-23T09:49:23;12.87;;;2.43;;
61911;SDS011;49973;52.084;5.412;2023-03-23T09:51:55;6.90;;;1.57;;
61911;SDS011;49973;52.084;5.412;2023-03-23T09:54:26;5.33;;;1.43;;
61911;SDS011;49973;52.084;5.412;2023-03-23T09:56:58;2.83;;;1.40;;
61911;SDS011;49973;52.084;5.412;2023-03-23T09:59:27;7.83;;;1.77;;
61911;SDS011;49973;52.084;5.412;2023-03-23T10:01:58;6.67;;;2.07;;
61911;SDS011;49973;52.084;5.412;2023-03-23T10:04:36;6.57;;;1.67;;
61911;SDS011;49973;52.084;5.412;2023-03-23T10:07:09;4.47;;;1.40;;
61911;SDS011;49973;52.084;5.412;2023-03-23T10:09:39;9.53;;;2.17;;
61911;SDS011;49973;52.084;5.412;2023-03-23T10:12:12;3.10;;;1.30;;
61911;SDS011;49973;52.084;5.412;2023-03-23T10:14:58;5.97;;;1.50;;
61911;SDS011;49973;52.084;5.412;2023-03-23T10:17:42;5.17;;;1.80;;
61911;SDS011;49973;52.084;5.412;2023-03-23T10:20:21;6.87;;;1.60;;
61911;SDS011;49973;52.084;5.412;2023-03-23T10:23:01;8.87;;;1.97;;
61911;SDS011;49973;52.084;5.412;2023-03-23T10:25:37;4.90;;;1.40;;
61911;SDS011;49973;52.084;5.412;2023-03-23T10:28:11;1.57;;;1.10;;
61911;SDS011;49973;52.084;5.412;2023-03-23T10:30:41;5.63;;;2.10;;
61911;SDS011;49973;52.084;5.412;2023-03-23T10:33:13;8.50;;;1.40;;
61911;SDS011;49973;52.084;5.412;2023-03-23T10:35:45;3.50;;;1.17;;
61911;SDS011;49973;52.084;5.412;2023-03-23T10:38:19;8.07;;;1.80;;
61911;SDS011;49973;52.084;5.412;2023-03-23T10:40:53;9.77;;;2.17;;
61911;SDS011;49973;52.084;5.412;2023-03-23T10:43:24;8.70;;;1.47;;
61911;SDS011;49973;52.084;5.412;2023-03-23T10:45:55;14.07;;;2.13;;
61911;SDS011;49973;52.084;5.412;2023-03-23T10:48:28;6.30;;;2.20;;
61911;SDS011;49973;52.084;5.412;2023-03-23T10:50:58;12.10;;;2.93;;
61911;SDS011;49973;52.084;5.412;2023-03-23T10:53:30;6.20;;;2.63;;
61911;SDS011;49973;52.084;5.412;2023-03-23T10:55:59;13.03;;;2.83;;
61911;SDS011;49973;52.084;5.412;2023-03-23T10:58:29;10.57;;;2.60;;
61911;SDS011;49973;52.084;5.412;2023-03-23T11:00:58;4.83;;;1.37;;
61911;SDS011;49973;52.084;5.412;2023-03-23T11:03:33;9.57;;;2.13;;
61911;SDS011;49973;52.084;5.412;2023-03-23T11:06:06;6.93;;;1.57;;
61911;SDS011;49973;52.084;5.412;2023-03-23T11:08:37;8.23;;;1.80;;
61911;SDS011;49973;52.084;5.412;2023-03-23T11:11:14;6.60;;;1.83;;
61911;SDS011;49973;52.084;5.412;2023-03-23T11:13:45;8.13;;;2.10;;
61911;SDS011;49973;52.084;5.412;2023-03-23T11:16:22;6.97;;;1.43;;
61911;SDS011;49973;52.084;5.412;2023-03-23T11:18:50;9.93;;;1.60;;
61911;SDS011;49973;52.084;5.412;2023-03-23T11:21:19;5.10;;;1.67;;
61911;SDS011;49973;52.084;5.412;2023-03-23T11:23:48;9.10;;;1.83;;
61911;SDS011;49973;52.084;5.412;2023-03-23T11:26:20;7.50;;;1.47;;
61911;SDS011;49973;52.084;5.412;2023-03-23T11:28:53;8.07;;;2.47;;
61911;SDS011;49973;52.084;5.412;2023-03-23T11:31:24;5.77;;;1.13;;
61911;SDS011;49973;52.084;5.412;2023-03-23T11:33:57;6.70;;;1.47;;
61911;SDS011;49973;52.084;5.412;2023-03-23T11:36:31;7.43;;;1.97;;
61911;SDS011;49973;52.084;5.412;2023-03-23T11:39:00;10.60;;;2.37;;
61911;SDS011;49973;52.084;5.412;2023-03-23T11:41:32;10.93;;;2.03;;
61911;SDS011;49973;52.084;5.412;2023-03-23T11:44:07;5.93;;;1.60;;
61911;SDS011;49973;52.084;5.412;2023-03-23T11:46:39;4.63;;;1.40;;
61911;SDS011;49973;52.084;5.412;2023-03-23T11:49:21;7.60;;;1.60;;
61911;SDS011;49973;52.084;5.412;2023-03-23T11:51:53;10.93;;;1.60;;
61911;SDS011;49973;52.084;5.412;2023-03-23T11:54:28;10.03;;;1.77;;
61911;SDS011;49973;52.084;5.412;2023-03-23T11:56:59;6.70;;;2.03;;
61911;SDS011;49973;52.084;5.412;2023-03-23T11:59:28;7.37;;;1.87;;
61911;SDS011;49973;52.084;5.412;2023-03-23T12:02:01;9.73;;;2.03;;
61911;SDS011;49973;52.084;5.412;2023-03-23T12:04:48;6.93;;;1.90;;
61911;SDS011;49973;52.084;5.412;2023-03-23T12:07:28;9.90;;;2.10;;
61911;SDS011;49973;52.084;5.412;2023-03-23T12:10:10;7.33;;;1.70;;
61911;SDS011;49973;52.084;5.412;2023-03-23T12:12:46;17.83;;;2.77;;
61911;SDS011;49973;52.084;5.412;2023-03-23T12:15:21;5.50;;;1.87;;
61911;SDS011;49973;52.084;5.412;2023-03-23T12:17:54;8.53;;;2.10;;
61911;SDS011;49973;52.084;5.412;2023-03-23T12:20:31;13.40;;;1.70;;
61911;SDS011;49973;52.084;5.412;2023-03-23T12:23:08;9.60;;;1.67;;
61911;SDS011;49973;52.084;5.412;2023-03-23T12:25:51;7.27;;;1.60;;
61911;SDS011;49973;52.084;5.412;2023-03-23T12:28:33;6.67;;;1.60;;
61911;SDS011;49973;52.084;5.412;2023-03-23T12:31:17;5.53;;;1.50;;
61911;SDS011;49973;52.084;5.412;2023-03-23T12:33:54;8.47;;;1.57;;
61911;SDS011;49973;52.084;5.412;2023-03-23T12:36:29;8.30;;;1.90;;
61911;SDS011;49973;52.084;5.412;2023-03-23T12:39:29;5.00;;;1.43;;
61911;SDS011;49973;52.084;5.412;2023-03-23T12:42:21;5.60;;;1.23;;
61911;SDS011;49973;52.084;5.412;2023-03-23T12:44:54;5.87;;;1.10;;
61911;SDS011;49973;52.084;5.412;2023-03-23T12:47:31;7.20;;;1.30;;
61911;SDS011;49973;52.084;5.412;2023-03-23T12:50:05;3.33;;;1.17;;
61911;SDS011;49973;52.084;5.412;2023-03-23T12:52:39;6.37;;;1.23;;
61911;SDS011;49973;52.084;5.412;2023-03-23T12:55:18;2.77;;;1.77;;
61911;SDS011;49973;52.084;5.412;2023-03-23T12:57:54;3.83;;;1.10;;
61911;SDS011;49973;52.084;5.412;2023-03-23T13:03:24;7.33;;;1.83;;
61911;SDS011;49973;52.084;5.412;2023-03-23T13:06:00;5.57;;;1.30;;
61911;SDS011;49973;52.084;5.412;2023-03-23T13:08:33;6.50;;;1.27;;
61911;SDS011;49973;52.084;5.412;2023-03-23T13:11:06;11.00;;;1.97;;
61911;SDS011;49973;52.084;5.412;2023-03-23T13:13:44;5.70;;;1.30;;
61911;SDS011;49973;52.084;5.412;2023-03-23T13:16:18;2.00;;;0.97;;
61911;SDS011;49973;52.084;5.412;2023-03-23T13:19:00;3.87;;;1.17;;
61911;SDS011;49973;52.084;5.412;2023-03-23T13:21:36;10.93;;;1.60;;
61911;SDS011;49973;52.084;5.412;2023-03-23T13:24:09;6.90;;;1.50;;
61911;SDS011;49973;52.084;5.412;2023-03-23T13:26:40;15.27;;;1.97;;
61911;SDS011;49973;52.084;5.412;2023-03-23T13:29:11;3.63;;;1.20;;
61911;SDS011;49973;52.084;5.412;2023-03-23T13:31:43;3.47;;;1.53;;
61911;SDS011;49973;52.084;5.412;2023-03-23T13:34:15;7.37;;;1.17;;
61911;SDS011;49973;52.084;5.412;2023-03-23T13:36:52;7.63;;;1.83;;
61911;SDS011;49973;52.084;5.412;2023-03-23T13:39:23;5.33;;;1.47;;
61911;SDS011;49973;52.084;5.412;2023-03-23T13:41:59;8.70;;;1.87;;
61911;SDS011;49973;52.084;5.412;2023-03-23T13:47:36;6.37;;;1.40;;
61911;SDS011;49973;52.084;5.412;2023-03-23T13:50:11;10.27;;;1.50;;
61911;SDS011;49973;52.084;5.412;2023-03-23T13:52:53;6.43;;;1.50;;
61911;SDS011;49973;52.084;5.412;2023-03-23T13:55:29;4.20;;;1.40;;
61911;SDS011;49973;52.084;5.412;2023-03-23T13:58:10;7.30;;;1.00;;
61911;SDS011;49973;52.084;5.412;2023-03-23T14:00:48;6.07;;;1.60;;
61911;SDS011;49973;52.084;5.412;2023-03-23T14:03:18;6.40;;;1.60;;
61911;SDS011;49973;52.084;5.412;2023-03-23T14:06:00;7.27;;;1.27;;
61911;SDS011;49973;52.084;5.412;2023-03-23T14:08:38;2.50;;;0.87;;
61911;SDS011;49973;52.084;5.412;2023-03-23T14:11:15;5.13;;;1.37;;
61911;SDS011;49973;52.084;5.412;2023-03-23T14:13:47;4.43;;;1.00;;
61911;SDS011;49973;52.084;5.412;2023-03-23T14:16:24;2.90;;;1.20;;
61911;SDS011;49973;52.084;5.412;2023-03-23T14:18:58;12.27;;;2.20;;
61911;SDS011;49973;52.084;5.412;2023-03-23T14:21:33;4.83;;;1.50;;
61911;SDS011;49973;52.084;5.412;2023-03-23T14:24:04;6.10;;;1.30;;
61911;SDS011;49973;52.084;5.412;2023-03-23T14:26:37;5.63;;;1.50;;
61911;SDS011;49973;52.084;5.412;2023-03-23T14:29:08;7.40;;;1.43;;
61911;SDS011;49973;52.084;5.412;2023-03-23T14:31:37;4.00;;;1.33;;
61911;SDS011;49973;52.084;5.412;2023-03-23T14:34:11;2.90;;;1.47;;
61911;SDS011;49973;52.084;5.412;2023-03-23T14:36:42;10.00;;;2.20;;
61911;SDS011;49973;52.084;5.412;2023-03-23T14:39:14;4.70;;;1.33;;
61911;SDS011;49973;52.084;5.412;2023-03-23T14:41:46;4.43;;;1.23;;
61911;SDS011;49973;52.084;5.412;2023-03-23T14:44:15;6.83;;;1.77;;
61911;SDS011;49973;52.084;5.412;2023-03-23T14:46:45;6.13;;;1.30;;
61911;SDS011;49973;52.084;5.412;2023-03-23T14:49:13;3.33;;;1.10;;
61911;SDS011;49973;52.084;5.412;2023-03-23T14:51:48;12.40;;;2.27;;
61911;SDS011;49973;52.084;5.412;2023-03-23T14:54:20;4.57;;;1.30;;
61911;SDS011;49973;52.084;5.412;2023-03-23T14:56:49;7.00;;;2.10;;
61911;SDS011;49973;52.084;5.412;2023-03-23T14:59:17;5.17;;;1.50;;
61911;SDS011;49973;52.084;5.412;2023-03-23T15:01:45;7.50;;;1.73;;
61911;SDS011;49973;52.084;5.412;2023-03-23T15:04:14;8.63;;;1.73;;
61911;SDS011;49973;52.084;5.412;2023-03-23T15:06:45;3.83;;;1.20;;
61911;SDS011;49973;52.084;5.412;2023-03-23T15:09:20;6.47;;;1.93;;
61911;SDS011;49973;52.084;5.412;2023-03-23T15:11:53;6.17;;;1.60;;
61911;SDS011;49973;52.084;5.412;2023-03-23T15:14:24;10.73;;;1.90;;
61911;SDS011;49973;52.084;5.412;2023-03-23T15:16:54;7.53;;;1.57;;
61911;SDS011;49973;52.084;5.412;2023-03-23T15:19:25;4.73;;;1.33;;
61911;SDS011;49973;52.084;5.412;2023-03-23T15:21:56;4.50;;;1.50;;
61911;SDS011;49973;52.084;5.412;2023-03-23T15:24:31;8.27;;;1.93;;
61911;SDS011;49973;52.084;5.412;2023-03-23T15:27:10;7.40;;;1.50;;
61911;SDS011;49973;52.084;5.412;2023-03-23T15:29:46;6.33;;;1.20;;
61911;SDS011;49973;52.084;5.412;2023-03-23T15:32:22;4.00;;;1.30;;
61911;SDS011;49973;52.084;5.412;2023-03-23T15:34:51;3.33;;;1.10;;
61911;SDS011;49973;52.084;5.412;2023-03-23T15:37:23;4.30;;;1.40;;
61911;SDS011;49973;52.084;5.412;2023-03-23T15:39:54;4.00;;;1.73;;
61911;SDS011;49973;52.084;5.412;2023-03-23T15:42:23;5.50;;;1.47;;